Time;durP1;ratioP1;P1;durP2;ratioP2;P2;SDS_P1;SDS_P2;PMS_P1;PMS_P2;Temp;Humidity;BMP_temperature;BMP_pressure;BME280_temperature;BME280_humidity;BME280_pressure;Samples;Min_cycle;Max_cycle;Signal;HPM_P1;HPM_P2
2023/03/12 00:00:21;;;;;;;3.10;2.00;;;;;;;12.22;58.48;98632.70;107793;1290;21984;-68
2023/03/12 00:02:47;;;;;;;4.30;2.50;;;;;;;11.97;58.69;98646.49;107801;1290;22024;-63
2023/03/12 00:05:13;;;;;;;4.70;2.10;;;;;;;12.04;58.52;98652.00;107688;1290;21986;-63
2023/03/12 00:07:39;;;;;;;3.00;2.30;;;;;;;11.97;58.31;98665.65;107814;1290;21983;-64
2023/03/12 00:10:05;;;;;;;3.60;2.90;;;;;;;11.94;58.30;98667.37;107646;1290;22001;-66
2023/03/12 00:12:33;;;;;;;4.60;3.20;;;;;;;11.85;58.07;98677.95;107699;1290;21992;-67
2023/03/12 00:14:59;;;;;;;4.10;3.00;;;;;;;11.67;58.40;98681.91;107670;1290;22027;-67
2023/03/12 00:17:25;;;;;;;4.30;2.90;;;;;;;11.71;58.31;98691.91;107640;1290;21992;-66
2023/03/12 00:19:51;;;;;;;5.70;3.10;;;;;;;11.65;58.87;98703.09;108000;1288;22348;-66
2023/03/12 00:22:21;;;;;;;3.30;2.70;;;;;;;11.64;58.83;98701.00;108047;1288;21992;-66
2023/03/12 00:24:51;;;;;;;4.70;2.90;;;;;;;11.65;58.62;98704.50;107990;1289;21996;-67
2023/03/12 00:27:17;;;;;;;4.70;3.30;;;;;;;11.55;57.94;98704.02;108182;1288;21957;-64
2023/03/12 00:29:43;;;;;;;4.50;3.50;;;;;;;11.54;57.59;98716.57;108096;1288;23726;-72
2023/03/12 00:32:12;;;;;;;8.70;3.50;;;;;;;11.75;57.14;98721.27;108104;1288;21991;-67
2023/03/12 00:34:40;;;;;;;5.50;3.40;;;;;;;11.86;56.94;98718.85;108023;1288;22000;-67
2023/03/12 00:37:06;;;;;;;3.80;2.90;;;;;;;11.91;56.78;98722.17;108003;1288;23053;-67
2023/03/12 00:39:33;;;;;;;5.00;3.50;;;;;;;11.85;56.71;98724.71;108118;1287;21998;-66
2023/03/12 00:41:58;;;;;;;6.60;3.90;;;;;;;11.90;56.52;98729.09;108115;1288;21987;-70
2023/03/12 00:44:24;;;;;;;5.20;4.00;;;;;;;11.68;56.06;98723.86;108055;1287;23741;-67
2023/03/12 00:46:49;;;;;;;5.70;3.60;;;;;;;11.56;55.82;98728.25;108137;1288;21997;-67
2023/03/12 00:49:15;;;;;;;5.70;3.60;;;;;;;11.53;55.25;98736.45;108152;1288;21989;-68
2023/03/12 00:51:41;;;;;;;7.40;4.00;;;;;;;11.44;55.12;98744.70;107364;1288;1002623;-71
2023/03/12 00:54:06;;;;;;;6.60;3.70;;;;;;;11.30;54.80;98748.13;108098;1288;22000;-70
2023/03/12 00:56:32;;;;;;;5.10;3.40;;;;;;;11.32;54.44;98749.95;108021;1289;21995;-70
2023/03/12 00:58:57;;;;;;;5.00;3.30;;;;;;;11.21;54.29;98752.87;107966;1289;22070;-64
2023/03/12 01:01:23;;;;;;;5.50;3.70;;;;;;;11.12;54.24;98754.61;107825;1289;21983;-71
2023/03/12 01:03:52;;;;;;;6.30;4.00;;;;;;;11.01;54.43;98762.82;108004;1274;22409;-69
2023/03/12 01:06:19;;;;;;;5.00;4.00;;;;;;;10.85;54.70;98765.02;107797;1288;21981;-66
2023/03/12 01:08:45;;;;;;;6.40;4.00;;;;;;;10.76;54.78;98766.41;108052;1288;22104;-71
2023/03/12 01:11:15;;;;;;;5.60;3.80;;;;;;;10.68;54.85;98762.83;107222;1288;1002277;-73
2023/03/12 01:13:41;;;;;;;;;;;;;;;10.76;54.65;98766.40;107282;1288;1002392;-70
2023/03/12 01:16:07;;;;;;;6.80;4.30;;;;;;;10.51;55.00;98780.14;107982;1289;21986;-75
2023/03/12 01:18:33;;;;;;;5.10;3.90;;;;;;;10.59;54.69;98778.27;107966;1289;21992;-72
2023/03/12 01:20:58;;;;;;;5.00;3.80;;;;;;;10.46;54.75;98783.32;107957;1289;23096;-64
2023/03/12 01:23:24;;;;;;;5.40;3.80;;;;;;;10.41;54.47;98787.54;108006;1287;21997;-75
2023/03/12 01:25:51;;;;;;;5.50;4.00;;;;;;;10.39;54.72;98791.27;108069;1288;21986;-73
2023/03/12 01:28:17;;;;;;;6.60;3.90;;;;;;;10.43;54.65;98794.47;108076;1288;21988;-64
2023/03/12 01:30:43;;;;;;;5.10;3.90;;;;;;;10.43;54.62;98801.83;108122;1288;21994;-72
2023/03/12 01:33:09;;;;;;;5.70;3.80;;;;;;;10.61;53.85;98810.63;108057;1288;21984;-67
2023/03/12 01:35:37;;;;;;;5.20;4.00;;;;;;;10.45;53.92;98805.95;108015;1289;23734;-74
2023/03/12 01:38:03;;;;;;;7.60;3.80;;;;;;;10.60;53.04;98802.45;108032;1289;22001;-68
2023/03/12 01:40:28;;;;;;;5.30;3.40;;;;;;;10.38;53.53;98807.64;108004;1289;21989;-67
2023/03/12 01:42:55;;;;;;;4.80;3.20;;;;;;;10.35;53.39;98814.23;107896;1288;22001;-63
2023/03/12 01:45:58;;;;;;;5.80;3.70;;;;;;;10.29;53.26;98827.92;108090;1288;22457;-68
2023/03/12 01:48:27;;;;;;;6.20;3.30;;;;;;;10.30;53.09;98836.66;108087;1288;23729;-67
2023/03/12 01:50:54;;;;;;;4.50;3.50;;;;;;;10.41;52.67;98842.58;108119;1288;21987;-67
2023/03/12 01:53:19;;;;;;;4.20;2.90;;;;;;;10.55;52.18;98848.23;107210;1288;1002400;-69
2023/03/12 01:55:45;;;;;;;4.60;3.20;;;;;;;10.44;52.14;98851.42;107288;1278;1002812;-71
2023/03/12 01:58:11;;;;;;;4.50;3.10;;;;;;;10.33;52.07;98854.09;107976;1287;21992;-73
2023/03/12 02:00:36;;;;;;;4.30;3.10;;;;;;;10.29;51.94;98852.98;107723;1275;21984;-67
2023/03/12 02:03:06;;;;;;;4.70;3.20;;;;;;;10.17;51.88;98857.80;108055;1288;21989;-67
2023/03/12 02:05:43;;;;;;;4.20;2.90;;;;;;;10.10;51.79;98866.42;108117;1289;21988;-76
2023/03/12 02:08:10;;;;;;;4.20;2.90;;;;;;;9.88;52.24;98877.84;108145;1276;21996;-74
2023/03/12 02:10:38;;;;;;;5.80;2.90;;;;;;;9.81;52.27;98882.11;108162;1288;23108;-63
2023/03/12 02:13:04;;;;;;;4.80;3.40;;;;;;;9.65;52.87;98885.27;107841;1288;22001;-63
2023/03/12 02:15:30;;;;;;;6.70;3.60;;;;;;;9.51;53.14;98889.03;108044;1288;22029;-63
2023/03/12 02:17:56;;;;;;;4.50;2.90;;;;;;;9.41;53.41;98896.34;108150;1288;21997;-68
2023/03/12 02:20:41;;;;;;;3.70;2.60;;;;;;;9.42;53.58;98898.06;108114;1288;21983;-63
2023/03/12 02:23:13;;;;;;;4.00;3.00;;;;;;;9.56;53.05;98905.19;108049;1289;22046;-63
2023/03/12 02:25:43;;;;;;;4.50;3.20;;;;;;;9.38;53.46;98914.65;107201;1289;1002926;-72
2023/03/12 02:28:11;;;;;;;4.10;2.60;;;;;;;9.34;53.56;98933.87;108127;1288;23133;-63
2023/03/12 02:30:38;;;;;;;4.80;2.90;;;;;;;9.45;52.92;98938.27;108155;1288;22461;-67
2023/03/12 02:33:06;;;;;;;4.40;2.40;;;;;;;9.20;52.88;98941.99;108044;1288;21997;-68
2023/03/12 02:35:32;;;;;;;4.90;2.40;;;;;;;9.11;53.17;98938.40;108124;1276;21991;-64
2023/03/12 02:37:58;;;;;;;4.60;2.60;;;;;;;8.83;54.05;98943.55;108041;1288;22742;-73
2023/03/12 02:40:31;;;;;;;4.50;2.10;;;;;;;8.93;53.54;98951.85;108023;1289;22046;-74
2023/03/12 02:42:56;;;;;;;3.80;2.50;;;;;;;8.82;53.92;98955.66;108008;1289;21988;-70
2023/03/12 02:45:22;;;;;;;5.90;2.50;;;;;;;8.84;53.83;98968.02;107858;1277;22104;-76
2023/03/12 02:47:47;;;;;;;3.80;2.30;;;;;;;8.76;53.98;98985.90;107953;1288;22006;-67
2023/03/12 02:50:13;;;;;;;3.90;2.70;;;;;;;8.71;54.36;98998.28;108185;1287;21996;-65
2023/03/12 02:52:39;;;;;;;3.40;2.10;;;;;;;8.65;54.51;99009.29;107407;1285;1002886;-67
2023/03/12 02:55:09;;;;;;;4.70;2.40;;;;;;;8.67;54.36;99001.88;108087;1288;21985;-74
2023/03/12 02:57:36;;;;;;;3.00;2.30;;;;;;;8.56;54.62;99010.20;108162;1288;21990;-75
2023/03/12 03:00:08;;;;;;;3.60;2.10;;;;;;;8.37;55.17;99020.45;108049;1286;21999;-72
2023/03/12 03:02:35;;;;;;;4.00;2.00;;;;;;;8.48;54.99;99029.48;108019;1288;21984;-70
2023/03/12 03:05:01;;;;;;;3.10;2.00;;;;;;;8.59;54.98;99034.42;108100;1288;22022;-68
2023/03/12 03:07:32;;;;;;;3.80;1.90;;;;;;;8.70;54.51;99037.48;108019;1281;21989;-67
2023/03/12 03:10:03;;;;;;;4.00;2.50;;;;;;;8.65;54.59;99032.89;108056;1288;21973;-69
2023/03/12 03:12:30;;;;;;;4.10;2.40;;;;;;;8.58;54.49;99036.55;108023;1288;22025;-63
2023/03/12 03:14:58;;;;;;;4.00;2.60;;;;;;;8.64;54.79;99041.81;107306;1288;1002252;-65
2023/03/12 03:17:24;;;;;;;3.60;2.30;;;;;;;8.70;54.61;99043.59;108061;1288;21985;-65
2023/03/12 03:19:50;;;;;;;4.00;2.10;;;;;;;8.82;54.02;99052.56;108058;1285;22000;-71
2023/03/12 03:22:18;;;;;;;3.50;2.20;;;;;;;8.74;53.36;99054.15;108080;1288;21993;-67
2023/03/12 03:24:44;;;;;;;5.00;2.00;;;;;;;8.49;53.05;99062.65;108168;1287;21992;-66
2023/03/12 03:27:10;;;;;;;3.20;1.90;;;;;;;8.55;52.39;99066.88;107914;1288;23104;-63
2023/03/12 03:29:36;;;;;;;3.70;1.80;;;;;;;8.56;52.05;99072.96;107868;1288;21990;-64
2023/03/12 03:32:03;;;;;;;3.20;2.20;;;;;;;8.60;52.14;99085.29;108072;1288;21990;-71
2023/03/12 03:34:29;;;;;;;3.40;2.30;;;;;;;8.53;52.21;99099.79;108086;1288;22450;-63
2023/03/12 03:36:55;;;;;;;2.70;2.00;;;;;;;8.40;52.12;99099.06;108038;1288;21989;-66
2023/03/12 03:39:21;;;;;;;3.80;2.20;;;;;;;8.44;52.16;99105.77;108042;1288;21988;-68
2023/03/12 03:41:47;;;;;;;3.10;1.80;;;;;;;8.45;52.08;99114.11;108068;1288;21989;-68
2023/03/12 03:44:13;;;;;;;4.00;2.60;;;;;;;8.38;51.97;99124.61;108024;1288;21997;-70
2023/03/12 03:46:39;;;;;;;5.90;2.90;;;;;;;8.34;52.31;99137.79;107995;1288;22002;-69
2023/03/12 03:49:05;;;;;;;4.20;2.70;;;;;;;8.35;52.69;99143.20;107935;1286;22001;-65
2023/03/12 03:51:31;;;;;;;3.30;2.30;;;;;;;8.37;53.05;99149.95;107095;1287;1002361;-67
2023/03/12 03:53:59;;;;;;;3.20;2.40;;;;;;;8.42;53.00;99158.44;107970;1282;22256;-63
2023/03/12 03:56:24;;;;;;;4.20;2.90;;;;;;;8.52;52.53;99160.83;108066;1288;21966;-63
2023/03/12 03:58:50;;;;;;;3.30;2.20;;;;;;;8.55;52.26;99168.98;107957;1288;21985;-67
2023/03/12 04:01:16;;;;;;;3.00;2.10;;;;;;;8.48;52.22;99175.26;108059;1276;22096;-67
2023/03/12 04:03:43;;;;;;;4.00;2.40;;;;;;;8.49;52.07;99179.77;107129;1288;1003187;-63
2023/03/12 04:06:09;;;;;;;3.70;2.50;;;;;;;8.40;52.45;99187.68;108058;1288;21983;-64
2023/03/12 04:08:36;;;;;;;3.80;2.00;;;;;;;8.48;52.15;99193.97;107747;1288;21993;-68
2023/03/12 04:11:09;;;;;;;3.50;2.30;;;;;;;8.41;52.08;99203.73;108002;1288;22770;-66
2023/03/12 04:13:34;;;;;;;3.40;2.30;;;;;;;8.27;52.48;99212.59;107214;1288;1002470;-68
2023/03/12 04:16:00;;;;;;;3.30;2.00;;;;;;;8.18;52.49;99225.52;107987;1288;21986;-65
2023/03/12 04:18:26;;;;;;;2.80;2.00;;;;;;;8.14;52.31;99230.33;107989;1288;21956;-66
2023/03/12 04:20:52;;;;;;;3.60;2.40;;;;;;;8.15;52.28;99246.22;107250;1286;1002699;-65
2023/03/12 04:23:18;;;;;;;4.60;2.30;;;;;;;8.16;52.35;99257.02;108067;1288;22025;-65
2023/03/12 04:25:43;;;;;;;5.10;2.00;;;;;;;8.21;52.05;99264.44;108100;1288;22020;-67
2023/03/12 04:28:09;;;;;;;3.80;1.80;;;;;;;8.29;51.84;99277.21;108071;1288;21983;-66
2023/03/12 04:30:37;;;;;;;4.70;2.20;;;;;;;8.33;51.72;99284.30;107986;1288;21999;-65
2023/03/12 04:33:04;;;;;;;3.00;1.90;;;;;;;8.26;51.90;99281.98;107251;1288;1002069;-64
2023/03/12 04:35:35;;;;;;;3.70;2.10;;;;;;;8.26;51.97;99284.97;108066;1285;23762;-66
2023/03/12 04:38:02;;;;;;;4.20;1.60;;;;;;;8.18;52.13;99289.83;108006;1288;22028;-66
2023/03/12 04:40:28;;;;;;;3.00;1.90;;;;;;;7.97;52.12;99289.19;108161;1287;21992;-66
2023/03/12 04:42:55;;;;;;;4.20;1.90;;;;;;;8.01;52.23;99299.42;108182;1277;21995;-67
2023/03/12 04:45:21;;;;;;;3.60;2.20;;;;;;;8.11;52.10;99307.95;108029;1276;21975;-67
2023/03/12 04:47:49;;;;;;;3.50;1.80;;;;;;;8.03;52.33;99311.11;108047;1289;21999;-67
2023/03/12 04:50:16;;;;;;;5.30;1.80;;;;;;;7.70;53.08;99313.08;108063;1289;23686;-68
2023/03/12 04:52:42;;;;;;;3.00;1.70;;;;;;;7.67;53.13;99308.42;108095;1285;21985;-68
2023/03/12 04:55:09;;;;;;;3.30;1.90;;;;;;;7.73;53.25;99299.24;108111;1288;21988;-65
2023/03/12 04:57:34;;;;;;;3.80;2.20;;;;;;;7.61;52.94;99305.21;108048;1288;22008;-68
2023/03/12 05:00:01;;;;;;;4.10;1.90;;;;;;;7.54;53.28;99309.52;107944;1288;21991;-65
2023/03/12 05:02:27;;;;;;;2.80;1.90;;;;;;;7.58;53.17;99309.64;108035;1287;22022;-68
2023/03/12 05:04:55;;;;;;;2.90;2.00;;;;;;;7.69;53.00;99307.17;108072;1287;21987;-67
2023/03/12 05:07:20;;;;;;;4.10;2.20;;;;;;;7.59;52.87;99301.39;108045;1275;21997;-66
2023/03/12 05:09:47;;;;;;;3.70;2.10;;;;;;;7.68;52.55;99307.36;108010;1288;21995;-65
2023/03/12 05:12:13;;;;;;;4.30;2.50;;;;;;;7.70;52.43;99316.06;107238;1288;1002415;-64
2023/03/12 05:14:39;;;;;;;4.00;2.40;;;;;;;7.65;52.27;99310.56;107231;1288;1002889;-72
2023/03/12 05:17:05;;;;;;;3.60;2.50;;;;;;;7.84;51.85;99315.48;108000;1287;21986;-68
2023/03/12 05:19:37;;;;;;;3.60;2.10;;;;;;;7.97;51.60;99325.71;107254;1284;1002607;-65
2023/03/12 05:22:02;;;;;;;3.30;2.20;;;;;;;8.12;51.08;99331.90;107336;1288;1002431;-73
2023/03/12 05:24:28;;;;;;;5.50;2.10;;;;;;;8.05;50.95;99337.44;107963;1285;22028;-67
2023/03/12 05:26:54;;;;;;;3.60;2.50;;;;;;;8.14;50.55;99345.84;108027;1288;21988;-72
2023/03/12 05:29:20;;;;;;;3.20;2.00;;;;;;;8.16;50.63;99362.41;107993;1288;21999;-66
2023/03/12 05:31:48;;;;;;;4.20;2.30;;;;;;;8.05;50.41;99372.90;108031;1286;21991;-66
2023/03/12 05:34:14;;;;;;;3.00;1.80;;;;;;;7.99;50.63;99388.57;107992;1288;21983;-69
2023/03/12 05:36:40;;;;;;;3.40;1.90;;;;;;;8.09;50.44;99394.85;107999;1287;22011;-73
2023/03/12 05:39:07;;;;;;;4.00;2.10;;;;;;;8.16;50.20;99396.29;108074;1288;22027;-65
2023/03/12 05:41:33;;;;;;;3.60;2.00;;;;;;;8.23;49.77;99400.88;107959;1280;21990;-69
2023/03/12 05:43:59;;;;;;;4.30;2.10;;;;;;;8.25;49.83;99399.98;108042;1280;21987;-66
2023/03/12 05:46:25;;;;;;;3.00;1.80;;;;;;;8.13;50.24;99403.51;107224;1288;1003157;-73
2023/03/12 05:48:51;;;;;;;3.30;1.90;;;;;;;8.42;50.13;99402.64;107977;1286;21992;-65
2023/03/12 05:51:17;;;;;;;3.40;2.00;;;;;;;8.47;49.77;99409.54;107347;1288;1002992;-71
2023/03/12 05:53:43;;;;;;;4.00;2.20;;;;;;;8.67;49.77;99418.28;108084;1286;21952;-65
2023/03/12 05:56:12;;;;;;;3.40;2.30;;;;;;;8.64;49.38;99427.42;108169;1288;21983;-63
2023/03/12 05:58:38;;;;;;;3.20;1.80;;;;;;;8.66;49.52;99432.27;107942;1285;21995;-66
2023/03/12 06:01:13;;;;;;;4.60;2.50;;;;;;;8.70;49.55;99443.22;108025;1285;23462;-63
2023/03/12 06:03:39;;;;;;;3.60;2.20;;;;;;;8.85;49.22;99458.14;107913;1285;22025;-64
2023/03/12 06:06:04;;;;;;;3.80;2.30;;;;;;;8.95;49.07;99463.55;107244;1288;1002574;-63
2023/03/12 06:08:30;;;;;;;4.90;2.00;;;;;;;9.00;48.85;99472.38;107972;1278;22148;-64
2023/03/12 06:10:56;;;;;;;5.30;2.10;;;;;;;9.09;48.44;99472.90;107952;1288;21987;-69
2023/03/12 06:13:22;;;;;;;3.30;2.10;;;;;;;9.09;47.82;99480.23;107942;1288;23651;-66
2023/03/12 06:15:51;;;;;;;2.90;1.80;;;;;;;9.05;47.64;99485.04;107986;1287;23139;-66
2023/03/12 06:18:18;;;;;;;4.00;1.60;;;;;;;9.12;47.51;99496.29;108032;1288;22022;-65
2023/03/12 06:20:43;;;;;;;4.50;2.00;;;;;;;8.92;47.22;99506.99;108019;1288;21997;-71
2023/03/12 06:23:11;;;;;;;3.70;1.80;;;;;;;8.94;47.20;99519.71;108002;1280;21990;-66
2023/03/12 06:25:38;;;;;;;3.30;1.90;;;;;;;8.93;47.00;99524.30;107994;1288;21995;-67
2023/03/12 06:28:05;;;;;;;4.20;2.00;;;;;;;8.99;46.96;99521.55;108059;1274;21986;-65
2023/03/12 06:30:31;;;;;;;4.00;2.40;;;;;;;8.92;46.70;99526.58;108071;1288;22939;-64
2023/03/12 06:32:57;;;;;;;3.80;2.10;;;;;;;9.03;46.61;99530.73;107998;1288;22455;-67
2023/03/12 06:35:22;;;;;;;3.40;2.00;;;;;;;8.91;46.79;99539.90;107984;1288;24088;-69
2023/03/12 06:37:48;;;;;;;3.90;1.80;;;;;;;9.04;46.99;99545.77;108010;1285;21987;-67
2023/03/12 06:40:16;;;;;;;4.30;2.10;;;;;;;9.03;47.15;99552.29;108016;1275;22024;-70
2023/03/12 06:42:43;;;;;;;3.70;1.90;;;;;;;9.21;47.05;99555.96;107382;1287;1002444;-75
2023/03/12 06:45:09;;;;;;;4.40;2.00;;;;;;;9.19;46.65;99553.91;107955;1288;21983;-69
2023/03/12 06:47:36;;;;;;;3.30;2.00;;;;;;;9.20;46.48;99563.34;108136;1288;22040;-69
2023/03/12 06:50:02;;;;;;;3.30;2.20;;;;;;;9.31;46.42;99568.19;107955;1288;21993;-69
2023/03/12 06:52:36;;;;;;;3.30;1.90;;;;;;;9.37;46.29;99574.90;107088;1289;1002565;-75
2023/03/12 06:55:03;;;;;;;3.60;2.00;;;;;;;9.42;46.17;99570.77;107239;1289;1002388;-68
2023/03/12 06:57:28;;;;;;;4.30;2.30;;;;;;;9.29;46.38;99573.30;108019;1282;22047;-69
2023/03/12 06:59:54;;;;;;;3.70;1.90;;;;;;;9.37;46.35;99575.08;108115;1287;21988;-64
2023/03/12 07:02:20;;;;;;;3.70;2.10;;;;;;;9.43;46.02;99584.05;108072;1288;21988;-67
2023/03/12 07:04:47;;;;;;;3.20;1.90;;;;;;;9.49;46.18;99593.73;108084;1288;21983;-74
2023/03/12 07:07:15;;;;;;;4.70;2.40;;;;;;;9.73;46.36;99605.16;108106;1288;22454;-65
2023/03/12 07:09:45;;;;;;;3.60;2.30;;;;;;;9.69;46.12;99616.46;107714;1288;22012;-66
2023/03/12 07:12:13;;;;;;;3.00;1.60;;;;;;;9.51;45.95;99626.09;108124;1288;23741;-68
2023/03/12 07:14:39;;;;;;;4.20;2.00;;;;;;;9.50;45.72;99626.48;108110;1282;21979;-67
2023/03/12 07:17:12;;;;;;;3.40;1.70;;;;;;;9.65;45.49;99630.02;108039;1277;22014;-65
2023/03/12 07:19:38;;;;;;;4.00;2.50;;;;;;;9.60;45.13;99635.73;107928;1287;21993;-66
2023/03/12 07:22:04;;;;;;;4.10;2.00;;;;;;;9.77;45.32;99632.76;107982;1275;21991;-66
2023/03/12 07:24:30;;;;;;;4.00;2.00;;;;;;;9.78;45.44;99641.50;107204;1288;1006710;-66
2023/03/12 07:26:56;;;;;;;3.60;1.90;;;;;;;9.74;44.64;99652.98;107322;1287;1002699;-65
2023/03/12 07:29:22;;;;;;;3.50;1.90;;;;;;;9.88;44.16;99654.77;107817;1288;21987;-67
2023/03/12 07:31:48;;;;;;;4.30;2.00;;;;;;;9.95;43.98;99661.47;108155;1287;21987;-65
2023/03/12 07:34:14;;;;;;;3.30;1.40;;;;;;;10.03;43.23;99665.16;108185;1288;21987;-66
2023/03/12 07:36:41;;;;;;;3.60;1.70;;;;;;;10.10;42.23;99666.05;108184;1283;21987;-65
2023/03/12 07:39:07;;;;;;;3.70;1.70;;;;;;;10.19;42.31;99676.37;107369;1288;1002912;-66
2023/03/12 07:41:36;;;;;;;3.00;1.70;;;;;;;10.35;42.67;99682.01;108090;1288;21994;-65
2023/03/12 07:44:02;;;;;;;4.30;1.60;;;;;;;10.47;43.07;99686.13;107417;1276;1002992;-64
2023/03/12 07:46:28;;;;;;;3.10;1.70;;;;;;;10.33;42.52;99698.71;108001;1289;22001;-70
2023/03/12 07:48:54;;;;;;;3.30;1.70;;;;;;;10.16;41.88;99695.39;107241;1284;1003290;-66
2023/03/12 07:51:19;;;;;;;2.50;1.50;;;;;;;10.21;41.68;99710.18;107958;1289;23682;-69
2023/03/12 07:53:45;;;;;;;3.20;1.40;;;;;;;10.08;41.55;99719.55;107985;1288;21986;-71
2023/03/12 07:56:11;;;;;;;2.20;1.20;;;;;;;10.03;41.55;99718.28;107952;1288;21985;-65
2023/03/12 07:58:37;;;;;;;3.20;1.40;;;;;;;10.21;41.31;99718.23;108151;1288;21999;-70
2023/03/12 08:01:10;;;;;;;7.00;1.70;;;;;;;10.30;41.25;99717.00;108117;1288;21997;-69
2023/03/12 08:03:37;;;;;;;2.90;1.60;;;;;;;10.48;41.71;99721.19;108114;1287;21990;-66
2023/03/12 08:06:07;;;;;;;3.00;1.20;;;;;;;10.55;41.02;99730.52;108035;1287;23988;-66
2023/03/12 08:08:37;;;;;;;2.30;1.30;;;;;;;10.56;41.02;99743.11;107112;1286;1002595;-72
2023/03/12 08:11:03;;;;;;;4.60;1.70;;;;;;;10.38;40.93;99749.62;108050;1288;23735;-74
2023/03/12 08:13:33;;;;;;;2.60;1.10;;;;;;;10.27;40.65;99753.02;108056;1288;22233;-69
2023/03/12 08:15:58;;;;;;;2.80;1.10;;;;;;;10.20;40.36;99754.04;107971;1275;21987;-64
2023/03/12 08:18:29;;;;;;;2.40;1.10;;;;;;;10.14;40.12;99755.54;107971;1288;22008;-69
2023/03/12 08:20:54;;;;;;;1.80;0.90;;;;;;;10.31;39.49;99758.18;107302;1288;1002529;-63
2023/03/12 08:23:20;;;;;;;2.00;1.00;;;;;;;10.60;38.86;99760.59;107998;1288;21989;-65
2023/03/12 08:25:47;;;;;;;3.50;0.90;;;;;;;10.78;38.42;99777.72;107856;1286;21996;-70
2023/03/12 08:28:15;;;;;;;4.80;2.40;;;;;;;10.81;37.89;99778.70;108021;1287;22856;-65
2023/03/12 08:30:47;;;;;;;2.60;1.10;;;;;;;10.98;37.96;99779.55;108024;1288;23787;-68
2023/03/12 08:33:13;;;;;;;2.80;1.00;;;;;;;11.25;38.56;99782.06;107323;1288;1002354;-66
2023/03/12 08:35:39;;;;;;;3.30;1.20;;;;;;;11.21;38.68;99785.33;108052;1288;21992;-68
2023/03/12 08:38:05;;;;;;;3.10;1.60;;;;;;;11.03;39.00;99786.79;108063;1285;21993;-65
2023/03/12 08:40:34;;;;;;;2.10;1.30;;;;;;;10.85;39.54;99790.90;107682;1288;21998;-72
2023/03/12 08:42:59;;;;;;;3.10;1.50;;;;;;;10.60;39.87;99801.26;108028;1282;21987;-68
2023/03/12 08:45:25;;;;;;;3.70;1.80;;;;;;;10.55;40.30;99810.50;108040;1285;21990;-65
2023/03/12 08:48:20;;;;;;;3.20;1.80;;;;;;;10.66;40.44;99820.98;107972;1288;22004;-69
2023/03/12 08:50:46;;;;;;;4.90;1.90;;;;;;;10.56;40.55;99837.15;107236;1289;1002269;-71
2023/03/12 08:53:12;;;;;;;4.70;2.50;;;;;;;10.30;40.96;99843.08;107214;1288;1002668;-71
2023/03/12 08:55:37;;;;;;;3.70;2.20;;;;;;;10.09;41.51;99845.39;107241;1286;1002221;-71
2023/03/12 08:58:03;;;;;;;4.10;2.00;;;;;;;10.05;41.68;99849.84;107287;1288;1002901;-65
2023/03/12 09:00:29;;;;;;;4.30;2.00;;;;;;;10.09;41.82;99846.11;107286;1288;1002277;-66
2023/03/12 09:02:57;;;;;;;4.10;1.90;;;;;;;10.08;41.91;99839.65;107276;1288;1002374;-69
2023/03/12 09:05:28;;;;;;;4.00;2.30;;;;;;;10.16;41.81;99850.90;108038;1286;23765;-64
2023/03/12 09:07:56;;;;;;;4.30;2.20;;;;;;;10.10;41.81;99851.02;107255;1288;1003052;-66
2023/03/12 09:10:22;;;;;;;3.40;1.90;;;;;;;10.11;41.62;99860.62;108066;1287;22002;-66
2023/03/12 09:12:48;;;;;;;3.30;1.50;;;;;;;10.21;41.25;99872.54;108006;1285;21995;-66
2023/03/12 09:15:17;;;;;;;3.50;1.90;;;;;;;10.28;41.47;99878.55;108017;1288;22199;-67
2023/03/12 09:17:43;;;;;;;4.10;2.00;;;;;;;10.32;41.19;99884.61;107976;1275;22745;-68
2023/03/12 09:20:13;;;;;;;4.10;2.10;;;;;;;10.31;40.86;99884.11;108043;1288;21997;-68
2023/03/12 09:22:40;;;;;;;3.60;2.00;;;;;;;10.40;40.63;99882.55;108332;1288;23733;-66
2023/03/12 09:25:06;;;;;;;2.60;1.50;;;;;;;10.68;40.65;99881.98;107973;1288;23574;-67
2023/03/12 09:27:37;;;;;;;3.80;1.70;;;;;;;10.73;39.37;99882.77;108059;1288;22205;-69
2023/03/12 09:30:05;;;;;;;3.20;1.60;;;;;;;10.76;39.13;99887.64;108094;1288;22006;-69
2023/03/12 09:32:31;;;;;;;2.20;1.40;;;;;;;10.84;39.33;99885.53;108042;1288;23652;-69
2023/03/12 09:35:03;;;;;;;2.80;1.60;;;;;;;10.89;38.99;99889.98;108004;1288;21991;-66
2023/03/12 09:37:31;;;;;;;2.10;1.20;;;;;;;10.74;38.58;99900.98;108067;1289;21995;-72
2023/03/12 09:39:57;;;;;;;2.50;1.20;;;;;;;10.63;38.87;99911.92;108018;1288;21990;-70
2023/03/12 09:42:41;;;;;;;4.10;1.60;;;;;;;10.46;38.46;99915.05;108026;1289;21993;-66
2023/03/12 09:45:13;;;;;;;3.40;1.30;;;;;;;10.43;38.10;99917.55;108010;1289;22054;-68
2023/03/12 09:47:53;;;;;;;2.40;1.10;;;;;;;10.57;38.55;99917.13;107900;1289;21985;-67
2023/03/12 09:50:42;;;;;;;2.90;1.50;;;;;;;10.60;38.42;99917.43;108017;1288;21967;-66
2023/03/12 09:53:24;;;;;;;3.70;2.00;;;;;;;10.75;38.38;99921.52;107981;1289;21999;-68
2023/03/12 09:55:51;;;;;;;2.90;1.30;;;;;;;10.88;38.20;99932.84;108021;1289;23718;-66
2023/03/12 09:58:26;;;;;;;4.10;1.70;;;;;;;10.94;37.96;99933.23;108055;1288;21998;-66
2023/03/12 10:00:56;;;;;;;3.80;1.40;;;;;;;10.82;37.17;99935.94;107971;1288;21998;-63
2023/03/12 10:03:45;;;;;;;1.60;0.90;;;;;;;10.97;37.63;99947.03;107913;1288;22004;-64
2023/03/12 10:06:18;;;;;;;2.40;1.10;;;;;;;11.13;37.32;99953.01;107180;1289;1002962;-63
2023/03/12 10:08:56;;;;;;;2.60;1.20;;;;;;;11.06;36.77;99954.58;108101;1288;22785;-73
2023/03/12 10:11:27;;;;;;;2.80;1.20;;;;;;;11.07;36.38;99955.96;108082;1288;22040;-68
2023/03/12 10:13:57;;;;;;;2.20;1.20;;;;;;;11.03;36.23;99964.48;107399;1288;1003452;-68
2023/03/12 10:16:44;;;;;;;2.70;1.20;;;;;;;11.01;36.39;99959.08;108073;1287;22012;-71
2023/03/12 10:19:30;;;;;;;2.20;1.10;;;;;;;11.12;36.86;99962.38;108000;1289;22000;-68
2023/03/12 10:22:21;;;;;;;3.80;1.40;;;;;;;11.37;37.25;99964.98;107998;1289;22002;-73
2023/03/12 10:25:12;;;;;;;2.80;1.20;;;;;;;11.53;36.76;99968.48;108000;1289;23078;-65
2023/03/12 10:27:38;;;;;;;3.70;1.70;;;;;;;11.62;36.85;99965.48;107286;1288;1002502;-66
2023/03/12 10:30:23;;;;;;;3.90;1.40;;;;;;;11.59;36.52;99971.88;107219;1288;1002284;-70
2023/03/12 10:32:56;;;;;;;2.10;1.10;;;;;;;11.52;36.90;99978.70;108039;1288;21995;-71
2023/03/12 10:35:23;;;;;;;3.20;1.70;;;;;;;11.48;36.61;99975.64;108083;1287;21996;-66
2023/03/12 10:38:00;;;;;;;2.90;1.30;;;;;;;11.28;36.17;99980.63;108214;1288;24319;-74
2023/03/12 10:40:29;;;;;;;5.00;1.50;;;;;;;11.32;36.76;99984.77;107277;1288;1002443;-72
2023/03/12 10:42:57;;;;;;;4.20;1.50;;;;;;;11.15;37.20;99987.39;108142;1288;23567;-64
2023/03/12 10:45:44;;;;;;;2.60;1.60;;;;;;;11.17;37.57;99991.57;107286;1288;1002564;-64
2023/03/12 10:48:16;;;;;;;3.70;1.90;;;;;;;11.06;37.80;99990.21;107952;1288;21990;-63
2023/03/12 10:50:43;;;;;;;3.10;1.60;;;;;;;10.97;37.59;99987.92;107879;1285;21990;-73
2023/03/12 10:53:36;;;;;;;4.00;1.50;;;;;;;10.90;37.68;99984.76;107705;1288;21988;-66
2023/03/12 10:56:13;;;;;;;2.50;1.50;;;;;;;11.01;37.46;99982.08;107811;1288;23266;-71
2023/03/12 10:58:42;;;;;;;3.10;1.60;;;;;;;11.08;37.52;99984.20;108070;1288;21992;-66
2023/03/12 11:01:14;;;;;;;3.20;1.50;;;;;;;11.08;37.14;99983.33;108094;1288;21995;-67
2023/03/12 11:03:44;;;;;;;3.00;1.70;;;;;;;11.23;36.63;99979.34;108083;1288;21987;-65
2023/03/12 11:06:24;;;;;;;4.80;1.60;;;;;;;11.26;36.55;99981.73;107967;1288;21987;-69
2023/03/12 11:09:11;;;;;;;3.60;1.60;;;;;;;11.40;36.39;99980.73;108058;1288;22860;-74
2023/03/12 11:11:36;;;;;;;3.00;1.60;;;;;;;11.51;36.36;99979.27;108066;1288;21995;-73
2023/03/12 11:14:22;;;;;;;3.30;1.30;;;;;;;11.60;36.51;99980.64;108007;1286;21996;-62
2023/03/12 11:16:49;;;;;;;3.30;1.40;;;;;;;11.70;36.33;99981.45;108052;1288;21998;-63
2023/03/12 11:19:31;;;;;;;3.50;1.20;;;;;;;11.74;35.91;99970.64;108117;1285;21990;-64
2023/03/12 11:21:59;;;;;;;3.20;1.00;;;;;;;11.78;35.64;99968.09;107263;1287;1002530;-66
2023/03/12 11:24:25;;;;;;;2.70;1.40;;;;;;;11.89;35.51;99968.52;108105;1281;21997;-71
2023/03/12 11:26:56;;;;;;;2.60;1.10;;;;;;;11.97;34.93;99966.95;107132;1288;1002881;-68
2023/03/12 11:29:31;;;;;;;3.00;1.20;;;;;;;11.92;35.07;99969.53;108084;1288;22019;-74
2023/03/12 11:32:19;;;;;;;2.90;1.10;;;;;;;12.22;34.74;99974.77;107420;1288;1003202;-72